createdAt,value
2018-10-04T00:02:28.472Z,4.67
2018-10-04T00:04:58.046Z,5.00
2018-10-04T00:07:27.160Z,4.20
2018-10-04T00:09:56.184Z,4.27
2018-10-04T00:12:25.341Z,4.43
2018-10-04T00:14:54.641Z,3.93
2018-10-04T00:17:23.908Z,4.83
2018-10-04T00:19:52.992Z,4.27
2018-10-04T00:22:22.030Z,4.63
2018-10-04T00:24:51.127Z,4.37
2018-10-04T00:27:20.165Z,4.97
2018-10-04T00:29:49.265Z,4.47
2018-10-04T00:32:18.356Z,5.27
2018-10-04T00:34:47.468Z,5.33
2018-10-04T00:37:16.552Z,4.80
2018-10-04T00:39:45.596Z,4.50
2018-10-04T00:42:14.716Z,4.50
2018-10-04T00:44:44.449Z,4.70
2018-10-04T00:47:18.665Z,4.73
2018-10-04T00:49:49.308Z,4.57
2018-10-04T00:52:18.392Z,4.43
2018-10-04T00:54:47.484Z,5.27
2018-10-04T00:57:16.544Z,5.20
2018-10-04T00:59:45.622Z,4.97
2018-10-04T01:02:14.968Z,4.50
2018-10-04T01:04:44.072Z,4.33
2018-10-04T01:07:13.168Z,4.77
2018-10-04T01:09:42.264Z,4.63
2018-10-04T01:12:11.332Z,4.30
2018-10-04T01:14:40.453Z,4.10
2018-10-04T01:17:09.459Z,4.23
2018-10-04T01:19:39.564Z,4.60
2018-10-04T01:22:09.443Z,4.70
2018-10-04T01:24:38.548Z,4.30
2018-10-04T01:27:07.672Z,4.00
2018-10-04T01:29:36.709Z,4.57
2018-10-04T01:32:05.736Z,4.40
2018-10-04T01:34:34.816Z,4.20
2018-10-04T01:37:03.905Z,4.40
2018-10-04T01:39:32.948Z,4.80
2018-10-04T01:42:02.012Z,4.73
2018-10-04T01:44:31.088Z,5.10
2018-10-04T01:47:00.192Z,5.27
2018-10-04T01:49:30.041Z,4.40
2018-10-04T01:51:59.108Z,4.20
2018-10-04T01:54:28.340Z,4.57
2018-10-04T01:56:57.828Z,4.70
2018-10-04T01:59:26.898Z,4.80
2018-10-04T02:01:56.160Z,3.87
2018-10-04T02:04:25.341Z,4.50
2018-10-04T02:06:54.400Z,3.63
2018-10-04T02:09:23.512Z,4.20
2018-10-04T02:11:54.633Z,4.33
2018-10-04T02:14:23.619Z,4.30
2018-10-04T02:16:52.765Z,5.00
2018-10-04T02:19:21.821Z,4.40
2018-10-04T02:21:50.928Z,4.60
2018-10-04T02:24:20.032Z,4.57
2018-10-04T02:26:49.133Z,4.77
2018-10-04T02:29:18.152Z,4.40
2018-10-04T02:31:47.388Z,3.80
2018-10-04T02:34:16.520Z,4.60
2018-10-04T02:36:45.582Z,4.00
2018-10-04T02:39:14.656Z,4.43
2018-10-04T02:41:43.680Z,4.03
2018-10-04T02:44:12.777Z,5.10
2018-10-04T02:46:42.100Z,4.17
2018-10-04T02:49:11.300Z,4.53
2018-10-04T02:51:40.676Z,4.43
2018-10-04T02:54:13.876Z,4.60
2018-10-04T02:56:48.369Z,4.47
2018-10-04T02:59:18.440Z,4.17
2018-10-04T03:01:47.417Z,4.30
2018-10-04T03:04:16.676Z,4.27
2018-10-04T03:06:45.977Z,4.50
2018-10-04T03:09:15.221Z,4.70
2018-10-04T03:11:44.564Z,4.03
2018-10-04T03:14:13.788Z,3.80
2018-10-04T03:16:42.887Z,4.03
2018-10-04T03:19:12.432Z,4.30
2018-10-04T03:21:42.025Z,4.10
2018-10-04T03:24:11.125Z,4.30
2018-10-04T03:26:41.040Z,4.47
2018-10-04T03:29:10.304Z,4.30
2018-10-04T03:31:39.400Z,4.20
2018-10-04T03:34:08.484Z,4.20
2018-10-04T03:36:37.630Z,4.60
2018-10-04T03:39:08.336Z,4.60
2018-10-04T03:41:37.416Z,4.17
2018-10-04T03:44:06.556Z,4.17
2018-10-04T03:46:35.644Z,4.20
2018-10-04T03:49:04.657Z,4.27
2018-10-04T03:51:33.724Z,4.13
2018-10-04T03:54:02.832Z,4.27
2018-10-04T03:56:31.901Z,4.60
2018-10-04T03:59:00.984Z,4.30
2018-10-04T04:01:30.284Z,4.50
2018-10-04T04:03:59.357Z,4.10
2018-10-04T04:06:28.360Z,4.50
2018-10-04T04:08:57.513Z,3.73
2018-10-04T04:11:26.576Z,3.90
2018-10-04T04:13:56.225Z,4.10
2018-10-04T04:16:25.412Z,4.37
2018-10-04T04:18:54.477Z,4.17
2018-10-04T04:21:23.573Z,4.10
2018-10-04T04:23:53.921Z,4.10
2018-10-04T04:26:23.033Z,3.97
2018-10-04T04:28:52.433Z,4.20
2018-10-04T04:31:21.818Z,4.23
2018-10-04T04:33:50.929Z,4.50
2018-10-04T04:36:20.131Z,4.20
2018-10-04T04:38:49.583Z,4.73
2018-10-04T04:41:18.665Z,4.43
2018-10-04T04:43:47.809Z,3.97
2018-10-04T04:46:17.492Z,4.23
2018-10-04T04:48:46.557Z,4.47
2018-10-04T04:51:15.612Z,4.10
2018-10-04T04:53:45.260Z,4.43
2018-10-04T04:56:14.364Z,5.33
2018-10-04T04:58:43.509Z,4.70
2018-10-04T05:01:12.577Z,4.80
2018-10-04T05:03:41.640Z,4.43
2018-10-04T05:06:10.774Z,4.03
2018-10-04T05:08:40.808Z,4.37
2018-10-04T05:11:09.860Z,4.20
2018-10-04T05:13:38.964Z,4.73
2018-10-04T05:16:08.309Z,4.73
2018-10-04T05:18:37.292Z,4.50
2018-10-04T05:21:06.408Z,4.97
2018-10-04T05:23:35.538Z,4.07
2018-10-04T05:26:04.643Z,4.10
2018-10-04T05:28:33.728Z,4.20
2018-10-04T05:31:02.800Z,4.30
2018-10-04T05:33:31.921Z,4.63
2018-10-04T05:36:01.017Z,5.17
2018-10-04T05:38:30.136Z,4.87
2018-10-04T05:40:59.176Z,5.13
2018-10-04T05:43:28.220Z,5.07
2018-10-04T05:45:57.317Z,4.40
2018-10-04T05:48:26.412Z,4.23
2018-10-04T05:50:56.120Z,4.53
2018-10-04T05:53:25.230Z,4.60
2018-10-04T05:55:55.312Z,3.93
2018-10-04T05:58:24.366Z,3.90
2018-10-04T06:00:53.529Z,4.30
2018-10-04T06:03:22.590Z,3.70
2018-10-04T06:05:51.641Z,4.87
2018-10-04T06:08:20.737Z,4.37
2018-10-04T06:10:49.832Z,4.20
2018-10-04T06:13:18.906Z,4.00
2018-10-04T06:15:47.964Z,3.53
2018-10-04T06:18:17.012Z,3.37
2018-10-04T06:20:46.137Z,3.67
2018-10-04T06:23:15.170Z,3.30
2018-10-04T06:25:44.253Z,4.13
2018-10-04T06:28:13.288Z,4.50
2018-10-04T06:30:42.388Z,4.10
2018-10-04T06:33:11.460Z,2.87
2018-10-04T06:35:40.499Z,3.30
2018-10-04T06:38:09.776Z,3.13
2018-10-04T06:40:38.825Z,3.77
2018-10-04T06:43:08.189Z,2.60
2018-10-04T06:45:37.265Z,4.27
2018-10-04T06:48:06.344Z,3.30
2018-10-04T06:50:35.440Z,3.20
2018-10-04T06:53:04.494Z,3.60
2018-10-04T06:55:33.619Z,3.43
2018-10-04T06:58:02.700Z,2.50
2018-10-04T07:00:31.848Z,2.80
2018-10-04T07:03:00.968Z,2.87
2018-10-04T07:05:30.041Z,3.22
2018-10-04T07:07:59.092Z,2.22
2018-10-04T07:10:28.177Z,2.87
2018-10-04T07:12:57.284Z,3.22
2018-10-04T07:15:26.343Z,2.92
2018-10-04T07:17:55.456Z,2.60
2018-10-04T07:20:24.583Z,2.75
2018-10-04T07:22:53.708Z,2.50
2018-10-04T07:25:22.772Z,2.70
2018-10-04T07:27:51.870Z,2.50
2018-10-04T07:30:20.985Z,3.10
2018-10-04T07:32:50.661Z,2.90
2018-10-04T07:35:19.757Z,2.62
2018-10-04T07:37:48.853Z,3.15
2018-10-04T07:40:18.176Z,2.70
2018-10-04T07:42:47.352Z,3.27
2018-10-04T07:45:16.684Z,2.85
2018-10-04T07:47:45.724Z,3.55
2018-10-04T07:50:14.775Z,2.67
2018-10-04T07:52:43.888Z,2.90
2018-10-04T07:55:12.968Z,3.10
2018-10-04T07:57:42.033Z,3.58
2018-10-04T08:00:11.202Z,3.08
2018-10-04T08:02:40.577Z,3.42
2018-10-04T08:05:09.720Z,3.00
2018-10-04T08:07:38.840Z,3.40
2018-10-04T08:10:07.927Z,3.65
2018-10-04T08:12:37.041Z,3.47
2018-10-04T08:15:06.449Z,3.55
2018-10-04T08:17:35.516Z,3.85
2018-10-04T08:20:04.590Z,3.62
2018-10-04T08:22:33.688Z,3.90
2018-10-04T08:25:02.763Z,3.80
2018-10-04T08:27:31.887Z,3.62
2018-10-04T08:30:00.931Z,3.72
2018-10-04T08:32:30.009Z,3.95
2018-10-04T08:34:59.104Z,4.30
2018-10-04T08:37:28.176Z,3.98
2018-10-04T08:39:57.249Z,3.90
2018-10-04T08:42:26.371Z,3.65
2018-10-04T08:44:55.381Z,4.53
2018-10-04T08:47:24.476Z,4.08
2018-10-04T08:49:53.552Z,4.00
2018-10-04T08:52:27.856Z,3.62
2018-10-04T08:55:01.560Z,3.50
2018-10-04T08:57:30.692Z,3.33
2018-10-04T08:59:59.776Z,4.00
2018-10-04T09:02:28.909Z,3.65
2018-10-04T09:04:57.980Z,3.92
2018-10-04T09:07:28.202Z,3.85
2018-10-04T09:09:59.160Z,3.70
2018-10-04T09:12:29.789Z,3.92
2018-10-04T09:14:58.907Z,3.62
2018-10-04T09:17:28.555Z,3.90
2018-10-04T09:19:58.174Z,4.28
2018-10-04T09:22:27.252Z,3.37
2018-10-04T09:24:56.336Z,3.77
2018-10-04T09:27:25.405Z,3.62
2018-10-04T09:29:59.761Z,3.65
2018-10-04T09:32:28.881Z,3.08
2018-10-04T09:34:58.077Z,2.92
2018-10-04T09:37:27.149Z,2.80
2018-10-04T09:39:56.253Z,3.30
2018-10-04T09:42:25.316Z,2.47
2018-10-04T09:44:54.407Z,2.67
2018-10-04T09:47:29.840Z,3.05
2018-10-04T09:49:59.779Z,2.83
2018-10-04T09:52:28.920Z,3.30
2018-10-04T09:55:03.289Z,3.30
2018-10-04T09:57:32.391Z,3.08
2018-10-04T10:00:07.241Z,2.80
2018-10-04T10:02:42.283Z,2.62
2018-10-04T10:05:12.628Z,3.05
2018-10-04T10:07:41.912Z,3.30
2018-10-04T10:10:11.340Z,2.98
2018-10-04T10:12:41.085Z,3.10
2018-10-04T10:15:10.099Z,3.02
2018-10-04T10:17:39.584Z,2.95
2018-10-04T10:20:09.305Z,2.75
2018-10-04T10:22:38.588Z,2.72
2018-10-04T10:25:08.349Z,2.87
2018-10-04T10:27:37.448Z,3.42
2018-10-04T10:30:06.801Z,3.35
2018-10-04T10:32:36.331Z,3.10
2018-10-04T10:35:05.821Z,2.75
2018-10-04T10:37:35.339Z,2.95
2018-10-04T10:40:04.503Z,3.05
2018-10-04T10:42:33.596Z,2.70
2018-10-04T10:45:02.749Z,3.65
2018-10-04T10:47:31.949Z,2.50
2018-10-04T10:50:01.076Z,3.00
2018-10-04T10:52:30.143Z,3.15
2018-10-04T10:54:59.232Z,2.75
2018-10-04T10:57:32.394Z,2.72
2018-10-04T11:00:01.916Z,3.05
2018-10-04T11:02:31.632Z,2.85
2018-10-04T11:05:00.836Z,3.02
2018-10-04T11:07:30.028Z,2.83
2018-10-04T11:09:59.130Z,2.55
2018-10-04T11:12:28.172Z,2.17
2018-10-04T11:14:57.276Z,2.80
2018-10-04T11:17:27.020Z,3.02
2018-10-04T11:19:56.149Z,2.60
2018-10-04T11:22:25.241Z,3.22
2018-10-04T11:24:54.324Z,2.47
2018-10-04T11:27:23.565Z,2.80
2018-10-04T11:29:52.656Z,2.35
2018-10-04T11:32:21.717Z,2.85
2018-10-04T11:34:50.764Z,2.35
2018-10-04T11:37:19.904Z,2.20
2018-10-04T11:39:48.992Z,2.42
2018-10-04T11:42:18.111Z,2.50
2018-10-04T11:44:52.577Z,2.52
2018-10-04T11:47:32.765Z,2.60
2018-10-04T11:50:02.132Z,2.47
2018-10-04T11:52:31.185Z,2.65
2018-10-04T11:55:00.220Z,2.47
2018-10-04T11:57:29.348Z,2.90
2018-10-04T11:59:58.392Z,2.33
2018-10-04T12:02:28.563Z,2.62
2018-10-04T12:04:57.968Z,2.50
2018-10-04T12:07:27.065Z,2.50
2018-10-04T12:09:56.124Z,2.65
2018-10-04T12:12:25.269Z,2.30
2018-10-04T12:14:54.292Z,2.37
2018-10-04T12:17:23.332Z,2.30
2018-10-04T12:19:52.429Z,2.35
2018-10-04T12:22:21.497Z,2.17
2018-10-04T12:24:50.589Z,2.20
2018-10-04T12:27:19.724Z,2.40
2018-10-04T12:29:48.825Z,2.47
2018-10-04T12:32:17.925Z,2.33
2018-10-04T12:34:47.693Z,2.75
2018-10-04T12:37:16.788Z,2.58
2018-10-04T12:39:45.884Z,2.45
2018-10-04T12:42:14.955Z,2.42
2018-10-04T12:44:44.087Z,2.95
2018-10-04T12:47:13.159Z,2.55
2018-10-04T12:49:42.376Z,2.40
2018-10-04T12:52:11.496Z,2.77
2018-10-04T12:54:40.568Z,2.45
2018-10-04T12:57:09.752Z,2.50
2018-10-04T12:59:38.840Z,2.40
2018-10-04T13:02:07.945Z,2.40
2018-10-04T13:04:37.184Z,2.45
2018-10-04T13:07:06.576Z,2.33
2018-10-04T13:09:35.448Z,2.27
2018-10-04T13:12:05.692Z,2.83
2018-10-04T13:14:34.716Z,2.10
2018-10-04T13:17:03.862Z,2.33
2018-10-04T13:19:32.968Z,2.40
2018-10-04T13:22:02.040Z,2.37
2018-10-04T13:24:31.060Z,2.62
2018-10-04T13:27:00.152Z,2.40
2018-10-04T13:29:29.232Z,2.33
2018-10-04T13:31:58.296Z,2.37
2018-10-04T13:34:27.393Z,2.55
2018-10-04T13:36:56.424Z,2.40
2018-10-04T13:39:25.484Z,2.58
2018-10-04T13:41:54.588Z,2.58
2018-10-04T13:44:23.692Z,2.62
2018-10-04T13:46:52.785Z,2.55
2018-10-04T13:49:21.893Z,2.30
2018-10-04T13:51:50.979Z,2.40
2018-10-04T13:54:20.028Z,2.30
2018-10-04T13:56:49.581Z,2.35
2018-10-04T13:59:18.713Z,2.22
2018-10-04T14:01:47.816Z,2.50
2018-10-04T14:04:16.956Z,2.37
2018-10-04T14:06:46.052Z,2.30
2018-10-04T14:09:15.180Z,2.35
2018-10-04T14:11:44.268Z,2.40
2018-10-04T14:14:13.369Z,3.08
2018-10-04T14:16:42.480Z,2.30
2018-10-04T14:19:11.588Z,2.27
2018-10-04T14:21:40.672Z,2.50
2018-10-04T14:24:09.985Z,2.33
2018-10-04T14:26:39.060Z,2.95
2018-10-04T14:29:08.320Z,2.30
2018-10-04T14:31:37.760Z,1.90
2018-10-04T14:34:07.332Z,2.17
2018-10-04T14:36:36.401Z,2.85
2018-10-04T14:39:06.052Z,2.47
2018-10-04T14:41:35.058Z,2.67
2018-10-04T14:44:04.101Z,2.52
2018-10-04T14:46:33.153Z,2.30
2018-10-04T14:49:02.281Z,2.05
2018-10-04T14:51:31.500Z,2.77
2018-10-04T14:54:00.524Z,2.00
2018-10-04T14:56:29.661Z,2.35
2018-10-04T14:58:58.743Z,2.70
2018-10-04T15:01:27.837Z,2.50
2018-10-04T15:03:57.338Z,2.77
2018-10-04T15:06:26.439Z,2.37
2018-10-04T15:08:55.496Z,2.60
2018-10-04T15:11:24.730Z,2.37
2018-10-04T15:13:53.776Z,2.35
2018-10-04T15:16:23.388Z,2.62
2018-10-04T15:18:52.472Z,2.40
2018-10-04T15:21:21.500Z,2.42
2018-10-04T15:23:50.621Z,2.85
2018-10-04T15:26:19.749Z,2.77
2018-10-04T15:28:48.913Z,2.70
2018-10-04T15:31:18.289Z,2.15
2018-10-04T15:33:47.433Z,2.70
2018-10-04T15:36:16.545Z,2.45
2018-10-04T15:38:45.969Z,2.20
2018-10-04T15:41:15.058Z,2.62
2018-10-04T15:43:44.309Z,2.55
2018-10-04T15:46:13.387Z,2.33
2018-10-04T15:48:42.464Z,2.05
2018-10-04T15:51:11.584Z,2.55
2018-10-04T15:53:40.681Z,2.52
2018-10-04T15:56:09.800Z,2.20
2018-10-04T15:58:38.952Z,2.37
2018-10-04T16:01:08.172Z,2.62
2018-10-04T16:03:37.321Z,2.67
2018-10-04T16:06:06.385Z,2.37
2018-10-04T16:08:35.563Z,2.40
2018-10-04T16:11:04.681Z,2.15
2018-10-04T16:13:33.923Z,3.00
2018-10-04T16:16:02.836Z,2.60
2018-10-04T16:18:32.112Z,2.40
2018-10-04T16:21:01.205Z,2.95
2018-10-04T16:23:30.232Z,2.70
2018-10-04T16:25:59.309Z,2.85
2018-10-04T16:28:28.348Z,2.77
2018-10-04T16:30:57.500Z,2.65
2018-10-04T16:33:26.608Z,3.22
2018-10-04T16:35:55.736Z,2.92
2018-10-04T16:38:24.919Z,2.72
2018-10-04T16:40:53.908Z,3.60
2018-10-04T16:43:22.972Z,2.87
2018-10-04T16:45:52.093Z,2.70
2018-10-04T16:48:21.392Z,2.92
2018-10-04T16:50:50.471Z,2.62
2018-10-04T16:53:19.508Z,2.72
2018-10-04T16:55:48.622Z,2.80
2018-10-04T16:58:17.933Z,2.90
2018-10-04T17:00:47.120Z,2.77
2018-10-04T17:03:16.247Z,2.83
2018-10-04T17:05:45.325Z,2.90
2018-10-04T17:08:14.465Z,2.87
2018-10-04T17:10:43.572Z,3.22
2018-10-04T17:13:12.641Z,2.95
2018-10-04T17:15:41.712Z,2.87
2018-10-04T17:18:11.426Z,3.12
2018-10-04T17:20:40.992Z,3.47
2018-10-04T17:23:10.100Z,2.98
2018-10-04T17:25:39.257Z,2.90
2018-10-04T17:28:08.320Z,3.33
2018-10-04T17:30:37.416Z,3.00
2018-10-04T17:33:06.565Z,2.85
2018-10-04T17:35:35.634Z,3.12
2018-10-04T17:38:04.734Z,3.15
2018-10-04T17:40:34.138Z,3.20
2018-10-04T17:43:03.208Z,3.55
2018-10-04T17:45:32.287Z,3.35
2018-10-04T17:48:01.421Z,2.80
2018-10-04T17:50:30.517Z,3.53
2018-10-04T17:52:59.613Z,3.40
2018-10-04T17:55:29.221Z,3.17
2018-10-04T17:57:58.261Z,2.80
2018-10-04T18:00:27.328Z,3.37
2018-10-04T18:02:56.425Z,3.30
2018-10-04T18:05:25.464Z,3.30
2018-10-04T18:07:54.596Z,3.53
2018-10-04T18:10:23.636Z,3.57
2018-10-04T18:12:52.785Z,3.83
2018-10-04T18:15:21.937Z,3.50
2018-10-04T18:17:51.161Z,3.53
2018-10-04T18:20:20.232Z,3.60
2018-10-04T18:22:49.372Z,3.70
2018-10-04T18:25:18.412Z,4.13
2018-10-04T18:27:47.561Z,3.23
2018-10-04T18:30:16.686Z,3.50
2018-10-04T18:32:45.793Z,3.60
2018-10-04T18:35:14.809Z,3.60
2018-10-04T18:37:43.850Z,3.70
2018-10-04T18:40:12.922Z,3.70
2018-10-04T18:42:42.033Z,3.80
2018-10-04T18:45:11.106Z,4.23
2018-10-04T18:47:40.212Z,4.20
2018-10-04T18:50:09.441Z,3.87
2018-10-04T18:52:38.524Z,3.87
2018-10-04T18:55:07.600Z,4.00
2018-10-04T18:57:36.684Z,4.30
2018-10-04T19:00:05.901Z,3.77
2018-10-04T19:02:34.909Z,4.30
2018-10-04T19:05:03.984Z,4.37
2018-10-04T19:07:33.089Z,3.80
2018-10-04T19:10:02.356Z,3.97
2018-10-04T19:12:31.461Z,3.93
2018-10-04T19:15:00.533Z,4.23
2018-10-04T19:17:29.673Z,4.13
2018-10-04T19:19:58.724Z,3.87
2018-10-04T19:22:27.841Z,4.57
2018-10-04T19:24:56.857Z,4.17
2018-10-04T19:27:25.960Z,4.50
2018-10-04T19:29:55.049Z,4.80
2018-10-04T19:32:24.152Z,3.70
2018-10-04T19:34:53.204Z,4.33
2018-10-04T19:37:22.293Z,4.37
2018-10-04T19:39:51.396Z,4.23
2018-10-04T19:42:20.480Z,3.93
2018-10-04T19:44:49.576Z,4.80
2018-10-04T19:47:18.608Z,3.97
2018-10-04T19:49:47.777Z,4.17
2018-10-04T19:52:16.861Z,4.80
2018-10-04T19:54:46.572Z,4.60
2018-10-04T19:57:15.664Z,4.47
2018-10-04T19:59:45.180Z,4.43
2018-10-04T20:02:14.288Z,4.40
2018-10-04T20:04:43.361Z,4.20
2018-10-04T20:07:12.424Z,4.40
2018-10-04T20:09:41.648Z,4.33
2018-10-04T20:12:10.656Z,4.43
2018-10-04T20:14:39.776Z,4.53
2018-10-04T20:17:09.249Z,4.57
2018-10-04T20:19:38.264Z,5.37
2018-10-04T20:22:12.197Z,4.60
2018-10-04T20:24:41.304Z,4.93
2018-10-04T20:27:10.708Z,4.70
2018-10-04T20:29:40.344Z,4.97
2018-10-04T20:32:09.904Z,4.47
2018-10-04T20:34:39.309Z,5.10
2018-10-04T20:37:08.436Z,4.23
2018-10-04T20:39:37.501Z,4.47
2018-10-04T20:42:06.549Z,4.63
2018-10-04T20:44:35.584Z,5.20
2018-10-04T20:47:05.068Z,5.43
2018-10-04T20:49:34.098Z,5.10
2018-10-04T20:52:03.188Z,5.40
2018-10-04T20:54:32.240Z,5.00
2018-10-04T20:57:01.264Z,5.23
2018-10-04T20:59:30.752Z,5.03
2018-10-04T21:01:59.832Z,5.03
2018-10-04T21:04:28.920Z,5.20
2018-10-04T21:06:58.189Z,5.77
2018-10-04T21:09:27.204Z,5.50
2018-10-04T21:11:56.264Z,5.57
2018-10-04T21:14:25.348Z,4.70
2018-10-04T21:16:54.409Z,5.20
2018-10-04T21:19:23.610Z,5.10
2018-10-04T21:21:52.716Z,4.93
2018-10-04T21:24:21.832Z,5.10
2018-10-04T21:26:50.881Z,5.40
2018-10-04T21:29:20.039Z,4.50
2018-10-04T21:31:49.093Z,5.07
2018-10-04T21:34:18.164Z,5.37
2018-10-04T21:36:47.256Z,6.00
2018-10-04T21:39:16.505Z,5.47
2018-10-04T21:41:45.592Z,5.17
2018-10-04T21:44:14.697Z,5.13
2018-10-04T21:46:43.792Z,5.10
2018-10-04T21:49:12.890Z,5.63
2018-10-04T21:51:41.984Z,5.47
2018-10-04T21:54:11.032Z,5.50
2018-10-04T21:56:40.072Z,5.47
2018-10-04T21:59:09.185Z,5.90
2018-10-04T22:01:38.261Z,6.80
2018-10-04T22:04:07.688Z,6.20
2018-10-04T22:06:36.836Z,6.00
2018-10-04T22:09:08.837Z,5.27
2018-10-04T22:11:37.972Z,4.90
2018-10-04T22:14:07.620Z,5.43
2018-10-04T22:16:36.645Z,5.70
2018-10-04T22:19:05.696Z,5.77
2018-10-04T22:21:34.804Z,5.97
2018-10-04T22:24:03.937Z,5.90
2018-10-04T22:26:33.130Z,6.20
2018-10-04T22:29:02.256Z,5.33
2018-10-04T22:31:31.349Z,5.20
2018-10-04T22:34:00.448Z,5.33
2018-10-04T22:36:29.496Z,5.10
2018-10-04T22:38:58.565Z,5.77
2018-10-04T22:41:27.621Z,5.17
2018-10-04T22:43:56.680Z,5.40
2018-10-04T22:46:25.764Z,5.57
2018-10-04T22:48:55.884Z,5.60
2018-10-04T22:51:24.985Z,5.80
2018-10-04T22:53:54.077Z,5.60
2018-10-04T22:56:23.236Z,5.30
2018-10-04T22:58:52.320Z,5.70
2018-10-04T23:01:21.383Z,5.97
2018-10-04T23:03:50.555Z,5.37
2018-10-04T23:06:19.659Z,5.00
2018-10-04T23:08:48.669Z,5.13
2018-10-04T23:11:17.915Z,5.67
2018-10-04T23:13:46.996Z,5.97
2018-10-04T23:16:16.397Z,5.43
2018-10-04T23:18:45.812Z,6.00
2018-10-04T23:21:14.900Z,5.97
2018-10-04T23:23:43.961Z,5.83
2018-10-04T23:26:13.100Z,6.03
2018-10-04T23:28:42.152Z,6.07
2018-10-04T23:31:11.228Z,5.30
2018-10-04T23:33:40.321Z,5.50
2018-10-04T23:36:09.376Z,5.57
2018-10-04T23:38:38.464Z,5.73
2018-10-04T23:41:07.580Z,5.67
2018-10-04T23:43:36.638Z,5.43
2018-10-04T23:46:05.684Z,5.10
2018-10-04T23:48:34.766Z,5.23
2018-10-04T23:51:03.853Z,5.70
2018-10-04T23:53:33.284Z,5.30
2018-10-04T23:56:02.324Z,5.70
2018-10-04T23:58:31.396Z,5.77
